Time;durP1;ratioP1;P1;durP2;ratioP2;P2;SDS_P1;SDS_P2;PMS_P1;PMS_P2;Temp;Humidity;BMP_temperature;BMP_pressure;BME280_temperature;BME280_humidity;BME280_pressure;Samples;Min_cycle;Max_cycle;Signal;HPM_P1;HPM_P2
2022/05/19 05:02:36;;;;;;;7.38;4.05;;;16.60;90.70;;;;;;6162293;23;20016;-82
2022/05/19 05:05:04;;;;;;;8.43;3.65;;;16.80;90.70;;;;;;6224472;23;20004;-81
2022/05/19 05:07:30;;;;;;;7.40;3.90;;;16.90;90.10;;;;;;6224890;23;20062;-81
2022/05/19 05:13:43;;;;;;;8.65;3.83;;;17.10;89.70;;;;;;6224132;23;20039;-82
2022/05/19 05:16:09;;;;;;;8.70;4.50;;;17.20;89.90;;;;;;6197773;23;20021;-80
2022/05/19 05:18:36;;;;;;;10.25;5.10;;;17.30;88.50;;;;;;6224425;23;20020;-81
2022/05/19 05:21:05;;;;;;;17.17;5.45;;;17.50;88.70;;;;;;6198900;23;20055;-81
2022/05/19 05:23:31;;;;;;;12.65;4.82;;;17.50;88.80;;;;;;6198562;23;20066;-81
2022/05/19 05:25:56;;;;;;;14.88;5.63;;;17.60;87.80;;;;;;6224800;23;20059;-82
2022/05/19 05:28:22;;;;;;;15.98;5.75;;;17.70;88.30;;;;;;6198892;23;20302;-82
2022/05/19 05:31:08;;;;;;;12.30;4.50;;;17.80;87.20;;;;;;6197234;23;20210;-81
2022/05/19 05:33:34;;;;;;;11.30;3.63;;;17.90;86.50;;;;;;6198549;23;20009;-81
2022/05/19 05:42:30;;;;;;;8.35;3.20;;;18.10;84.80;;;;;;6216109;23;20039;-80
2022/05/19 05:44:56;;;;;;;4.80;2.55;;;18.20;84.30;;;;;;6225093;23;20004;-81
2022/05/19 05:47:21;;;;;;;6.72;2.65;;;18.20;83.90;;;;;;6198191;23;20024;-81
2022/05/19 05:49:47;;;;;;;8.43;2.97;;;18.30;83.90;;;;;;6224795;23;20233;-81
2022/05/19 05:52:22;;;;;;;6.25;2.42;;;18.40;83.80;;;;;;6224672;23;19989;-82
2022/05/19 05:54:48;;;;;;;5.90;2.38;;;18.50;83.70;;;;;;6198014;23;20013;-81
2022/05/19 05:57:17;;;;;;;5.22;2.80;;;18.60;82.80;;;;;;6225070;23;20023;-81
2022/05/19 05:59:42;;;;;;;;;;;18.60;82.30;;;;;;6198876;23;20027;-81
2022/05/19 06:02:08;;;;;;;3.22;1.83;;;18.70;82.10;;;;;;6172017;23;20142;-81
2022/05/19 06:04:35;;;;;;;5.82;2.45;;;18.70;82.00;;;;;;6143666;23;20017;-82
2022/05/19 06:07:00;;;;;;;9.75;2.92;;;18.80;82.40;;;;;;6143270;23;20068;-81
2022/05/19 06:09:26;;;;;;;5.70;2.90;;;19.00;82.00;;;;;;6168725;23;20063;-81
2022/05/19 06:11:55;;;;;;;6.25;2.70;;;19.00;81.90;;;;;;6194609;23;20004;-80
2022/05/19 06:14:22;;;;;;;6.10;3.03;;;19.10;81.10;;;;;;6167503;23;20016;-80
2022/05/19 06:16:50;;;;;;;6.88;2.72;;;19.20;81.10;;;;;;6166711;23;20334;-81
2022/05/19 06:19:18;;;;;;;6.13;2.67;;;19.30;80.50;;;;;;6192202;23;20012;-82
2022/05/19 06:21:44;;;;;;;6.63;2.83;;;19.40;80.40;;;;;;6167432;23;20187;-79
2022/05/19 06:24:12;;;;;;;7.40;2.97;;;19.30;80.50;;;;;;6142907;23;20004;-79
2022/05/19 06:26:39;;;;;;;5.45;2.53;;;19.50;80.40;;;;;;6194120;23;20220;-80
2022/05/19 06:29:12;;;;;;;6.07;2.90;;;19.60;80.40;;;;;;6167075;23;20124;-80
2022/05/19 06:31:53;;;;;;;5.90;2.75;;;19.70;79.90;;;;;;6166148;23;20032;-81
2022/05/19 06:34:53;;;;;;;10.20;3.95;;;19.80;79.50;;;;;;6167396;23;20012;-81
2022/05/19 06:37:34;;;;;;;9.23;3.38;;;19.90;79.30;;;;;;6166986;23;20005;-82
2022/05/19 06:43:54;;;;;;;7.57;3.28;;;20.20;78.40;;;;;;6193206;23;20067;-81
2022/05/19 06:46:23;;;;;;;5.72;2.80;;;20.50;78.00;;;;;;6142227;23;20068;-82
2022/05/19 06:49:19;;;;;;;6.68;2.72;;;20.60;77.70;;;;;;6144404;23;20028;-83
2022/05/19 06:51:45;;;;;;;7.28;2.72;;;20.70;78.10;;;;;;6194993;23;20016;-82
2022/05/19 06:54:11;;;;;;;6.70;3.05;;;20.90;77.40;;;;;;6197800;23;20009;-81
2022/05/19 06:56:38;;;;;;;6.15;2.45;;;21.10;76.70;;;;;;6195905;23;20251;-80
2022/05/19 07:10:56;;;;;;;8.75;2.75;;;21.50;76.50;;;;;;6119916;23;20088;-79
2022/05/19 07:13:22;;;;;;;6.05;2.65;;;21.70;76.50;;;;;;6167048;23;20028;-81
2022/05/19 07:15:51;;;;;;;7.60;2.55;;;21.80;76.50;;;;;;6138196;23;20045;-79
2022/05/19 07:18:16;;;;;;;;;;;21.80;75.70;;;;;;6139689;23;20009;-79
2022/05/19 07:20:48;;;;;;;6.43;2.90;;;22.00;75.50;;;;;;6104273;23;19932;-79
2022/05/19 07:23:20;;;;;;;6.47;2.30;;;22.20;75.30;;;;;;6102750;23;20060;-80
2022/05/19 07:25:49;;;;;;;5.60;2.42;;;22.40;74.60;;;;;;6080064;23;20006;-80
2022/05/19 07:28:17;;;;;;;7.88;2.45;;;22.60;74.10;;;;;;6104121;23;20022;-79
2022/05/19 07:30:46;;;;;;;7.82;2.47;;;22.60;73.90;;;;;;6079710;23;20011;-80
2022/05/19 07:33:15;;;;;;;9.40;2.80;;;22.70;73.50;;;;;;6103824;23;20022;-79
2022/05/19 07:35:46;;;;;;;6.32;2.60;;;22.90;73.50;;;;;;6104155;23;20025;-79
2022/05/19 07:38:15;;;;;;;6.65;2.45;;;23.00;73.50;;;;;;6079485;23;20006;-78
2022/05/19 07:40:44;;;;;;;6.45;2.80;;;23.20;73.30;;;;;;6103548;23;20010;-82
2022/05/19 07:55:27;;;;;;;8.18;2.78;;;23.40;72.30;;;;;;6140018;23;19995;-80
2022/05/19 07:57:53;;;;;;;7.88;2.15;;;23.70;72.70;;;;;;6211044;23;20043;-79
2022/05/19 08:00:23;;;;;;;5.43;2.00;;;23.90;72.30;;;;;;6226245;23;20000;-78
2022/05/19 08:02:49;;;;;;;3.80;1.63;;;23.90;71.90;;;;;;6248357;23;20008;-81
2022/05/19 08:05:18;;;;;;;5.45;2.40;;;24.00;71.00;;;;;;6256771;23;20000;-80
2022/05/19 08:08:15;;;;;;;5.05;2.47;;;24.10;72.10;;;;;;6205601;23;20034;-80
2022/05/19 08:10:46;;;;;;;3.92;1.95;;;24.30;71.70;;;;;;6204389;23;20004;-82
2022/05/19 08:17:03;;;;;;;4.65;2.45;;;24.70;70.40;;;;;;6254330;23;20059;-82
2022/05/19 08:22:58;;;;;;;6.13;2.28;;;25.00;70.40;;;;;;6255457;23;20008;-82
2022/05/19 08:25:31;;;;;;;7.95;2.38;;;24.90;70.30;;;;;;6256052;23;20024;-82
2022/05/19 08:28:00;;;;;;;6.38;2.10;;;25.00;70.00;;;;;;6229271;23;20012;-81
2022/05/19 08:30:27;;;;;;;6.38;2.20;;;25.10;69.60;;;;;;6256044;23;20245;-82
2022/05/19 08:32:56;;;;;;;6.10;2.80;;;25.30;69.80;;;;;;6255802;23;20004;-81
2022/05/19 08:35:28;;;;;;;7.82;2.58;;;25.60;69.90;;;;;;6228470;23;20278;-81
2022/05/19 08:37:54;;;;;;;5.10;2.10;;;25.80;68.90;;;;;;6255601;23;20011;-82
2022/05/19 08:40:57;;;;;;;4.13;2.05;;;26.10;68.60;;;;;;6229351;23;20011;-80
2022/05/19 08:44:00;;;;;;;2.50;1.70;;;26.10;68.20;;;;;;6255896;23;19996;-80
2022/05/19 08:46:32;;;;;;;3.50;1.60;;;26.10;69.00;;;;;;6231768;23;20012;-81
2022/05/19 08:49:05;;;;;;;4.13;2.08;;;26.40;67.20;;;;;;6230475;23;20015;-80
2022/05/19 08:51:38;;;;;;;2.85;1.77;;;26.50;66.90;;;;;;6205119;23;20008;-80
2022/05/19 08:54:33;;;;;;;5.20;1.92;;;26.50;66.90;;;;;;6232027;23;20053;-79
2022/05/19 08:57:09;;;;;;;4.95;2.55;;;26.80;67.50;;;;;;6261386;23;20026;-82
2022/05/19 09:00:06;;;;;;;4.45;1.77;;;27.10;67.10;;;;;;6220205;23;20024;-81
2022/05/19 09:06:02;;;;;;;3.90;2.13;;;27.50;65.40;;;;;;6200715;23;20021;-80
2022/05/19 09:08:48;;;;;;;5.30;1.83;;;27.50;65.40;;;;;;6227023;23;20008;-82
2022/05/19 09:12:01;;;;;;;4.82;2.55;;;27.60;66.30;;;;;;6226118;23;19996;-84
2022/05/19 09:14:32;;;;;;;4.38;2.17;;;27.60;66.40;;;;;;6226840;23;20019;-79
2022/05/19 09:17:03;;;;;;;4.43;2.00;;;27.60;66.40;;;;;;6188950;23;20082;-80
2022/05/19 09:19:56;;;;;;;3.95;2.00;;;27.70;66.60;;;;;;6201716;23;20004;-80
2022/05/19 09:22:26;;;;;;;3.40;2.17;;;27.60;66.70;;;;;;6199918;23;20005;-80
2022/05/19 09:24:53;;;;;;;5.88;2.15;;;27.80;66.90;;;;;;6226420;23;20020;-80
2022/05/19 09:27:22;;;;;;;3.70;2.20;;;27.90;66.40;;;;;;6225998;23;20001;-81
2022/05/19 09:29:49;;;;;;;5.68;2.40;;;28.10;65.60;;;;;;6199698;23;20383;-80
2022/05/19 09:32:34;;;;;;;5.15;2.13;;;28.00;65.90;;;;;;6225065;23;20013;-80
2022/05/19 09:35:19;;;;;;;5.40;2.25;;;28.00;66.00;;;;;;6198502;23;20012;-80
2022/05/19 09:38:18;;;;;;;6.47;2.10;;;28.10;66.30;;;;;;6225019;23;20041;-80
2022/05/19 09:40:49;;;;;;;4.45;2.20;;;28.30;66.10;;;;;;6199652;23;20023;-79
2022/05/19 09:43:32;;;;;;;7.22;2.40;;;28.40;65.60;;;;;;6174985;23;20059;-80
2022/05/19 09:46:14;;;;;;;4.65;2.20;;;28.60;65.50;;;;;;6172661;23;20011;-82
2022/05/19 09:49:03;;;;;;;5.45;2.22;;;28.80;65.30;;;;;;6223457;23;20012;-80
2022/05/19 09:51:42;;;;;;;7.80;2.67;;;28.90;64.80;;;;;;6226552;23;20000;-80
2022/05/19 09:54:15;;;;;;;8.52;2.38;;;29.00;64.90;;;;;;6224423;23;20005;-80
2022/05/19 09:56:59;;;;;;;6.80;2.42;;;29.10;64.60;;;;;;6173545;23;20287;-80
2022/05/19 09:59:37;;;;;;;5.38;2.05;;;29.30;64.50;;;;;;6225481;23;20282;-81
2022/05/19 10:02:36;;;;;;;8.00;2.38;;;29.50;64.40;;;;;;6224564;23;20205;-80
2022/05/19 10:05:18;;;;;;;5.95;2.10;;;29.60;64.20;;;;;;6214432;23;20023;-81
2022/05/19 10:07:49;;;;;;;5.38;2.38;;;29.70;64.60;;;;;;6226087;23;20005;-79
2022/05/19 10:10:29;;;;;;;4.05;2.22;;;29.90;64.20;;;;;;6198780;23;20199;-80
2022/05/19 10:13:02;;;;;;;5.15;2.42;;;29.90;64.10;;;;;;6223296;23;20064;-81
2022/05/19 10:15:49;;;;;;;8.35;2.25;;;29.90;63.40;;;;;;6196635;23;20063;-80
2022/05/19 10:18:24;;;;;;;4.15;2.20;;;30.00;63.40;;;;;;6196780;23;20302;-81
2022/05/19 10:21:30;;;;;;;8.18;2.30;;;30.10;63.30;;;;;;6199918;23;20008;-79
2022/05/19 10:24:10;;;;;;;5.03;2.45;;;30.20;63.20;;;;;;6235222;23;20001;-82
2022/05/19 10:26:46;;;;;;;5.70;2.17;;;30.00;63.10;;;;;;6239990;23;20038;-78
2022/05/19 10:32:12;;;;;;;3.53;2.10;;;30.40;63.50;;;;;;6222826;23;20012;-80
2022/05/19 10:34:53;;;;;;;4.60;2.10;;;30.60;62.70;;;;;;6223329;23;20015;-79
2022/05/19 10:37:25;;;;;;;6.30;2.00;;;30.70;62.70;;;;;;6222226;23;20015;-80
2022/05/19 10:40:03;;;;;;;6.15;2.22;;;30.90;62.20;;;;;;6222453;23;20000;-80
2022/05/19 10:42:49;;;;;;;3.97;2.10;;;31.00;62.10;;;;;;6222426;23;20000;-79
2022/05/19 10:45:36;;;;;;;4.35;2.13;;;30.90;62.10;;;;;;6222210;23;20068;-77
2022/05/19 10:48:36;;;;;;;3.92;1.95;;;30.90;62.10;;;;;;6198861;23;20012;-79
2022/05/19 10:51:44;;;;;;;3.88;2.10;;;30.90;62.00;;;;;;6226097;23;20000;-79
2022/05/19 10:54:32;;;;;;;4.90;2.55;;;31.00;61.80;;;;;;6223785;23;20028;-78
2022/05/19 10:57:11;;;;;;;5.22;2.60;;;31.00;62.10;;;;;;6224454;23;20047;-79
2022/05/19 11:00:07;;;;;;;6.68;2.40;;;31.00;62.40;;;;;;6198312;23;20008;-83
2022/05/19 11:02:58;;;;;;;4.82;2.25;;;31.20;62.70;;;;;;6224588;23;20269;-80
2022/05/19 11:05:50;;;;;;;4.28;2.20;;;31.20;62.40;;;;;;6196153;23;20001;-78
2022/05/19 11:08:48;;;;;;;3.78;2.30;;;31.30;61.40;;;;;;6195820;23;20031;-79
2022/05/19 11:11:38;;;;;;;4.75;2.15;;;31.50;60.80;;;;;;6222953;23;20001;-80
2022/05/19 11:14:33;;;;;;;3.67;2.08;;;31.90;59.70;;;;;;6222994;23;20024;-79
2022/05/19 11:17:17;;;;;;;6.30;2.50;;;32.30;59.90;;;;;;6122973;23;20036;-78
2022/05/19 11:20:18;;;;;;;5.22;2.47;;;32.60;59.50;;;;;;6197462;23;20000;-80
2022/05/19 11:22:49;;;;;;;5.82;2.20;;;32.80;59.40;;;;;;6224827;23;20000;-81
2022/05/19 11:29:31;;;;;;;5.55;2.40;;;33.00;58.20;;;;;;6074274;23;20249;-78
2022/05/19 11:32:22;;;;;;;4.32;2.08;;;33.80;57.40;;;;;;6075853;23;20038;-79
2022/05/19 11:35:04;;;;;;;13.15;2.58;;;34.20;57.10;;;;;;6054029;23;20011;-81
2022/05/19 11:37:46;;;;;;;5.47;2.42;;;35.00;56.50;;;;;;6080938;23;20007;-79
2022/05/19 11:40:28;;;;;;;5.38;1.98;;;35.90;55.40;;;;;;6080084;23;20007;-81
2022/05/19 11:43:14;;;;;;;3.17;2.30;;;36.80;54.50;;;;;;6080584;23;20030;-78
2022/05/19 11:46:06;;;;;;;5.15;2.08;;;37.80;53.00;;;;;;6078313;23;20019;-78
2022/05/19 11:55:12;;;;;;;4.60;2.20;;;39.50;51.50;;;;;;6228952;23;20005;-79
2022/05/19 11:57:55;;;;;;;4.57;2.20;;;39.90;50.40;;;;;;6224414;23;20050;-80
2022/05/19 12:00:33;;;;;;;6.45;1.80;;;40.50;50.10;;;;;;6222308;23;20008;-80
2022/05/19 12:03:08;;;;;;;6.43;1.77;;;41.30;49.40;;;;;;6197499;23;20027;-79
2022/05/19 12:05:56;;;;;;;2.75;1.80;;;42.30;48.20;;;;;;6223018;23;20059;-78
2022/05/19 12:08:29;;;;;;;5.20;2.15;;;42.90;47.70;;;;;;6222921;23;20019;-78
2022/05/19 12:11:20;;;;;;;5.15;2.30;;;43.40;47.20;;;;;;6224123;23;20164;-79
2022/05/19 12:14:11;;;;;;;6.03;2.10;;;44.00;47.20;;;;;;6197288;23;20000;-80
2022/05/19 12:16:55;;;;;;;4.82;1.80;;;44.00;46.80;;;;;;6171574;23;20012;-80
2022/05/19 12:19:38;;;;;;;5.93;2.00;;;44.60;46.60;;;;;;6196831;23;20258;-78
2022/05/19 12:22:28;;;;;;;4.07;1.90;;;44.60;46.10;;;;;;6223521;23;20044;-81
2022/05/19 12:25:00;;;;;;;4.13;1.80;;;44.70;46.20;;;;;;6223482;23;20176;-80
2022/05/19 12:27:51;;;;;;;4.10;1.48;;;45.30;46.10;;;;;;6222816;23;20032;-78
2022/05/19 12:33:47;;;;;;;5.75;2.08;;;43.00;45.80;;;;;;6223058;23;20016;-82
2022/05/19 12:36:38;;;;;;;5.40;2.10;;;43.00;47.20;;;;;;6221991;23;20012;-84
2022/05/19 12:39:29;;;;;;;4.35;2.03;;;44.10;46.10;;;;;;6196811;23;20103;-82
2022/05/19 12:42:10;;;;;;;4.68;1.85;;;45.40;45.20;;;;;;6179696;23;20224;-77
2022/05/19 12:44:41;;;;;;;5.13;2.00;;;44.10;45.50;;;;;;6222800;23;20004;-82
2022/05/19 12:47:15;;;;;;;4.78;1.90;;;42.60;46.50;;;;;;6195819;23;20017;-81
2022/05/19 12:50:01;;;;;;;3.97;2.00;;;42.20;47.40;;;;;;6223563;23;20020;-82
2022/05/19 12:52:54;;;;;;;4.72;1.98;;;44.40;47.00;;;;;;6222433;23;20028;-79
2022/05/19 12:55:26;;;;;;;8.88;1.95;;;45.10;46.20;;;;;;6221175;23;20068;-81
2022/05/19 12:57:57;;;;;;;5.90;2.05;;;45.60;45.70;;;;;;6222318;23;20004;-80
2022/05/19 13:00:39;;;;;;;3.22;1.73;;;45.60;45.30;;;;;;6221316;23;20317;-80
2022/05/19 13:03:13;;;;;;;3.83;2.08;;;46.00;45.40;;;;;;6194935;23;20020;-79
2022/05/19 13:06:00;;;;;;;3.00;1.52;;;46.40;44.80;;;;;;6222419;23;20008;-79
2022/05/19 13:08:43;;;;;;;6.30;1.80;;;47.90;43.80;;;;;;6221816;23;20045;-79
2022/05/19 13:11:13;;;;;;;4.40;1.70;;;49.00;43.10;;;;;;6194607;23;20009;-79
2022/05/19 13:14:02;;;;;;;5.30;1.85;;;49.50;43.00;;;;;;6222248;23;20020;-81
2022/05/19 13:16:51;;;;;;;4.28;1.90;;;48.90;42.20;;;;;;6222476;23;20310;-79
2022/05/19 13:19:22;;;;;;;3.63;1.92;;;48.00;42.60;;;;;;6221459;23;20076;-81
2022/05/19 13:21:56;;;;;;;3.25;1.77;;;48.20;43.20;;;;;;6222506;23;20085;-80
2022/05/19 13:24:24;;;;;;;3.47;1.77;;;48.60;43.20;;;;;;6222178;23;20061;-80
2022/05/19 13:30:22;;;;;;;3.13;1.85;;;48.30;43.30;;;;;;6222706;23;20005;-80
2022/05/19 13:33:08;;;;;;;3.80;2.00;;;47.60;43.10;;;;;;6222244;23;20012;-78
2022/05/19 13:35:34;;;;;;;4.22;1.85;;;46.70;43.70;;;;;;6221860;23;20000;-78
2022/05/19 13:38:01;;;;;;;3.17;1.70;;;46.60;43.60;;;;;;6196506;23;20044;-79
2022/05/19 13:40:45;;;;;;;5.40;1.80;;;45.90;44.00;;;;;;6195961;23;20057;-80
2022/05/19 13:43:30;;;;;;;4.20;1.98;;;45.10;45.10;;;;;;6222538;23;20043;-80
2022/05/19 13:46:04;;;;;;;6.45;2.17;;;44.70;45.20;;;;;;6222171;23;20075;-81
2022/05/19 13:49:00;;;;;;;7.95;2.70;;;44.70;45.50;;;;;;6222405;23;20063;-79
2022/05/19 13:51:45;;;;;;;5.20;2.22;;;44.20;45.90;;;;;;6223236;23;20072;-80
2022/05/19 13:54:45;;;;;;;4.80;2.22;;;44.40;45.80;;;;;;6204865;23;20051;-81
2022/05/19 13:57:35;;;;;;;3.15;1.80;;;43.90;45.60;;;;;;6232079;23;20000;-79
2022/05/19 14:00:09;;;;;;;6.25;1.83;;;43.30;45.80;;;;;;6211288;23;20019;-81
2022/05/19 14:02:41;;;;;;;3.95;2.25;;;42.80;46.20;;;;;;6232548;23;20039;-81
2022/05/19 14:05:27;;;;;;;3.10;2.13;;;42.60;46.90;;;;;;6197831;23;20102;-79
2022/05/19 14:08:22;;;;;;;3.38;2.17;;;42.20;47.30;;;;;;6175624;23;20080;-79
2022/05/19 14:10:57;;;;;;;5.25;2.35;;;41.40;48.00;;;;;;6192611;23;20043;-81
2022/05/19 14:13:39;;;;;;;5.25;2.15;;;41.30;47.80;;;;;;6191739;23;20183;-80
2022/05/19 14:16:32;;;;;;;3.53;2.40;;;41.50;47.70;;;;;;6165338;23;20013;-80
2022/05/19 14:19:19;;;;;;;6.28;2.00;;;41.40;48.30;;;;;;6166662;23;20011;-81
2022/05/19 14:21:49;;;;;;;9.32;2.08;;;43.60;47.10;;;;;;6195885;23;20029;-80
2022/05/19 14:24:17;;;;;;;8.50;2.47;;;44.90;45.70;;;;;;6167584;23;20135;-79
2022/05/19 14:26:51;;;;;;;4.57;2.00;;;43.60;45.70;;;;;;6194776;23;20005;-81
2022/05/19 14:29:33;;;;;;;3.95;2.20;;;42.50;46.80;;;;;;6141690;23;20108;-79
2022/05/19 14:32:46;;;;;;;5.20;2.42;;;41.50;47.60;;;;;;6151049;23;20192;-80
2022/05/19 14:35:22;;;;;;;4.25;2.13;;;40.80;48.40;;;;;;6071854;23;20021;-81
2022/05/19 14:44:24;;;;;;;3.75;2.28;;;42.30;47.50;;;;;;6046512;23;20103;-81
2022/05/19 14:47:14;;;;;;;5.78;2.20;;;41.90;47.60;;;;;;6070623;23;20274;-80
2022/05/19 14:49:49;;;;;;;3.42;2.50;;;40.90;48.10;;;;;;6071049;23;20011;-81
2022/05/19 14:52:22;;;;;;;4.68;2.63;;;40.10;49.20;;;;;;6070565;23;20185;-81
2022/05/19 14:55:01;;;;;;;4.40;2.30;;;39.80;50.30;;;;;;6079544;23;20010;-78
2022/05/19 14:57:35;;;;;;;4.63;2.35;;;39.30;50.10;;;;;;6082971;23;20037;-78
2022/05/19 15:00:03;;;;;;;5.45;2.70;;;39.70;50.10;;;;;;6084254;23;20011;-79
2022/05/19 15:02:31;;;;;;;3.75;2.38;;;40.30;49.40;;;;;;6077523;23;20021;-80
2022/05/19 15:04:57;;;;;;;4.18;2.10;;;40.30;49.00;;;;;;6072066;23;20308;-78
2022/05/19 15:07:41;;;;;;;5.18;2.30;;;41.00;48.90;;;;;;6089583;23;20029;-79
2022/05/19 15:10:08;;;;;;;3.88;2.20;;;42.60;47.30;;;;;;6099922;23;20245;-79
2022/05/19 15:16:03;;;;;;;5.03;2.22;;;42.80;46.60;;;;;;6072461;23;20150;-80
2022/05/19 15:18:29;;;;;;;4.35;2.05;;;42.70;47.10;;;;;;6119937;23;20299;-78
2022/05/19 15:20:58;;;;;;;6.65;2.05;;;43.20;46.80;;;;;;6136540;23;20276;-80
2022/05/19 15:23:29;;;;;;;2.92;1.80;;;44.10;46.30;;;;;;6129775;23;20010;-80
2022/05/19 15:25:56;;;;;;;4.07;2.10;;;44.80;45.20;;;;;;6129828;23;20326;-82
2022/05/19 15:28:23;;;;;;;4.20;2.40;;;45.40;44.90;;;;;;6105695;23;20081;-81
2022/05/19 15:30:51;;;;;;;6.32;2.83;;;45.50;44.70;;;;;;6124956;23;20037;-79
2022/05/19 15:33:20;;;;;;;5.22;2.20;;;46.30;44.60;;;;;;6130293;23;20001;-79
2022/05/19 15:35:52;;;;;;;3.85;1.75;;;47.10;43.60;;;;;;6130789;23;20010;-78
2022/05/19 15:38:18;;;;;;;6.18;2.20;;;48.30;42.80;;;;;;6130673;23;20311;-80
2022/05/19 15:40:52;;;;;;;4.05;2.08;;;48.20;42.60;;;;;;6130407;23;20005;-81
2022/05/19 15:43:19;;;;;;;3.50;1.80;;;48.60;42.60;;;;;;6130436;23;20069;-80
2022/05/19 15:45:45;;;;;;;4.60;2.10;;;48.90;42.20;;;;;;6129587;23;20106;-79
2022/05/19 15:48:10;;;;;;;4.50;1.73;;;48.50;42.00;;;;;;6130838;23;20010;-79
2022/05/19 15:50:45;;;;;;;2.80;1.70;;;48.50;42.00;;;;;;6105209;23;19997;-80
2022/05/19 15:53:41;;;;;;;4.57;1.90;;;49.30;42.10;;;;;;6131051;23;20014;-79
2022/05/19 15:56:08;;;;;;;5.25;2.30;;;49.90;41.70;;;;;;6162406;23;20112;-79
2022/05/19 15:58:35;;;;;;;4.10;1.75;;;49.50;41.10;;;;;;6112330;23;20129;-82
2022/05/19 16:01:02;;;;;;;;;;;49.10;41.80;;;;;;6175641;23;20069;-80
2022/05/19 16:03:32;;;;;;;5.70;1.73;;;50.00;41.60;;;;;;6168289;23;20086;-81
2022/05/19 16:06:06;;;;;;;3.67;1.48;;;50.50;41.10;;;;;;6143999;23;20029;-82
2022/05/19 16:08:32;;;;;;;4.43;1.98;;;51.20;41.10;;;;;;6143791;23;20009;-82
2022/05/19 16:11:10;;;;;;;7.17;1.97;;;51.30;40.80;;;;;;6168731;23;20011;-82
2022/05/19 16:13:44;;;;;;;11.73;2.00;;;51.40;40.50;;;;;;6168244;23;20025;-81
2022/05/19 16:16:10;;;;;;;5.97;2.10;;;51.10;40.20;;;;;;6180258;23;20016;-82
2022/05/19 16:18:37;;;;;;;6.15;2.10;;;48.90;40.90;;;;;;6139269;23;20005;-82
2022/05/19 16:21:21;;;;;;;3.47;1.95;;;46.10;42.40;;;;;;6143078;23;20006;-81
2022/05/19 16:23:53;;;;;;;7.15;2.00;;;44.20;44.50;;;;;;6169448;23;20078;-80
2022/05/19 16:26:25;;;;;;;6.18;2.00;;;42.50;45.40;;;;;;6141170;23;20076;-81
2022/05/19 16:28:51;;;;;;;5.28;2.50;;;41.60;46.70;;;;;;6113840;23;20124;-81
2022/05/19 16:31:17;;;;;;;4.78;2.13;;;41.50;46.50;;;;;;6137991;23;20025;-82
2022/05/19 16:33:45;;;;;;;4.70;2.10;;;42.00;45.80;;;;;;6138793;23;20005;-82
2022/05/19 16:36:11;;;;;;;4.68;2.10;;;42.90;45.30;;;;;;6114310;23;20016;-82
2022/05/19 16:38:39;;;;;;;7.28;2.50;;;43.30;45.00;;;;;;6138199;23;20233;-80
2022/05/19 16:41:06;;;;;;;5.03;2.33;;;43.50;44.90;;;;;;6164950;23;20001;-80
2022/05/19 16:43:34;;;;;;;4.43;2.00;;;43.20;45.00;;;;;;6113721;23;20325;-80
2022/05/19 16:46:00;;;;;;;3.85;2.22;;;42.60;45.50;;;;;;6175316;23;20100;-81
2022/05/19 16:48:26;;;;;;;5.45;2.10;;;42.10;45.90;;;;;;6143181;23;19997;-82
2022/05/19 16:50:55;;;;;;;6.07;2.50;;;41.30;46.60;;;;;;6167768;23;20295;-81
2022/05/19 16:53:21;;;;;;;4.28;2.72;;;40.70;47.30;;;;;;6143503;23;19993;-81
2022/05/19 16:58:38;;;;;;;6.88;4.70;;;38.10;48.60;;;;;;6164815;23;20005;-82
2022/05/19 17:01:53;;;;;;;4.95;3.05;;;36.40;49.60;;;;;;6165921;23;20009;-82
2022/05/19 17:04:21;;;;;;;5.75;2.78;;;34.90;51.50;;;;;;6194060;23;20009;-83
2022/05/19 17:07:40;;;;;;;7.53;2.40;;;34.10;53.10;;;;;;6192413;23;20068;-82
2022/05/19 17:10:25;;;;;;;4.72;2.17;;;33.80;53.30;;;;;;6142594;23;20007;-81
2022/05/19 17:12:59;;;;;;;6.78;3.85;;;33.50;53.90;;;;;;6193513;23;20005;-81
2022/05/19 17:15:28;;;;;;;8.18;4.68;;;33.20;54.40;;;;;;6197295;23;20009;-82
2022/05/19 17:18:44;;;;;;;18.08;11.27;;;33.10;54.90;;;;;;6172193;23;19997;-83
2022/05/19 17:21:28;;;;;;;12.02;8.52;;;32.60;55.60;;;;;;6196959;23;20008;-83
2022/05/19 17:23:57;;;;;;;10.90;3.75;;;32.40;56.20;;;;;;6172560;23;20050;-80
2022/05/19 17:26:50;;;;;;;7.60;2.80;;;32.00;56.00;;;;;;6196863;23;20063;-80
2022/05/19 17:29:19;;;;;;;7.93;2.80;;;31.70;56.60;;;;;;6223649;23;20035;-82
2022/05/19 17:31:46;;;;;;;5.90;2.55;;;31.50;57.10;;;;;;6194753;23;20035;-81
2022/05/19 17:34:11;;;;;;;6.63;3.00;;;31.10;57.60;;;;;;6171148;23;20008;-81
2022/05/19 17:36:38;;;;;;;6.40;2.47;;;31.00;58.00;;;;;;6196725;23;20008;-82
2022/05/19 17:39:05;;;;;;;6.72;2.95;;;30.90;58.20;;;;;;6223900;23;20005;-81
2022/05/19 17:41:30;;;;;;;6.28;2.50;;;30.70;58.40;;;;;;6224091;23;20072;-81
2022/05/19 17:43:57;;;;;;;6.93;2.63;;;30.60;58.90;;;;;;6171721;23;20015;-82
2022/05/19 17:46:24;;;;;;;11.65;3.17;;;30.40;58.60;;;;;;6196571;23;20017;-82
2022/05/19 17:48:53;;;;;;;5.88;2.40;;;30.50;58.80;;;;;;6196639;23;20016;-80
2022/05/19 17:51:34;;;;;;;7.60;2.60;;;30.60;58.30;;;;;;6223598;23;19989;-80
2022/05/19 17:54:00;;;;;;;18.25;5.30;;;30.40;61.80;;;;;;6223727;23;20008;-77
2022/05/19 17:56:28;;;;;;;14.88;5.20;;;27.60;99.60;;;;;;6223292;23;20313;-77
2022/05/19 17:58:55;;;;;;;8.60;2.38;;;18.80;99.90;;;;;;6222540;23;20008;-77
2022/05/19 18:01:21;;;;;;;12.18;3.33;;;16.00;99.90;;;;;;6221947;23;20034;-78
2022/05/19 18:03:49;;;;;;;11.85;3.60;;;17.10;99.90;;;;;;6222825;23;20059;-79
2022/05/19 18:06:17;;;;;;;10.00;3.30;;;18.30;99.90;;;;;;6163141;23;20024;-78
2022/05/19 18:08:43;;;;;;;8.82;2.80;;;19.10;99.90;;;;;;6170402;23;20101;-79
2022/05/19 18:11:09;;;;;;;0.22;0.22;;;19.60;99.90;;;;;;6171560;23;20025;-78
2022/05/19 18:13:38;;;;;;;0.32;0.30;;;19.70;99.90;;;;;;6169728;23;20093;-79
2022/05/19 18:18:49;;;;;;;1.45;0.98;;;20.10;99.90;;;;;;6136744;23;20021;-79
2022/05/19 18:21:14;;;;;;;2.15;0.77;;;20.30;99.90;;;;;;6160850;23;20021;-79
2022/05/19 18:23:41;;;;;;;1.20;0.75;;;20.40;99.90;;;;;;6135942;23;20056;-79
2022/05/19 18:26:14;;;;;;;1.13;0.90;;;20.70;99.90;;;;;;6161369;23;20065;-81
2022/05/19 18:28:41;;;;;;;0.52;0.35;;;21.10;99.90;;;;;;6136715;23;20203;-80
2022/05/19 18:31:09;;;;;;;0.22;0.20;;;21.30;99.90;;;;;;6139615;23;20049;-80
2022/05/19 18:33:38;;;;;;;0.55;0.38;;;21.30;99.90;;;;;;6136102;23;20069;-80
2022/05/19 18:36:06;;;;;;;;;;;21.20;99.90;;;;;;6138290;23;20021;-79
2022/05/19 18:38:33;;;;;;;0.57;0.38;;;21.30;99.90;;;;;;6195268;23;19903;-80
2022/05/19 18:46:29;;;;;;;0.38;0.35;;;21.50;99.90;;;;;;6198196;23;20032;-80
2022/05/19 18:48:56;;;;;;;0.70;0.50;;;21.40;99.90;;;;;;6225465;23;20036;-79
2022/05/19 18:51:22;;;;;;;0.60;0.50;;;21.30;99.90;;;;;;6199005;23;20064;-80
2022/05/19 18:53:48;;;;;;;0.52;0.50;;;21.10;99.90;;;;;;6198575;23;19996;-79
2022/05/19 18:56:18;;;;;;;0.55;0.43;;;21.10;99.90;;;;;;6198800;23;20012;-79
2022/05/19 18:58:53;;;;;;;5.47;1.33;;;21.10;99.90;;;;;;6223423;23;20012;-79
2022/05/19 19:01:20;;;;;;;0.28;0.28;;;21.00;99.90;;;;;;6195313;23;20249;-80
2022/05/19 19:03:46;;;;;;;1.05;0.70;;;21.00;99.90;;;;;;6199852;23;20000;-79
2022/05/19 19:06:14;;;;;;;0.73;0.60;;;21.20;99.90;;;;;;6227186;23;20023;-80
2022/05/19 19:08:43;;;;;;;2.00;1.75;;;21.10;99.90;;;;;;6233688;23;20060;-80
2022/05/19 19:11:09;;;;;;;0.30;0.30;;;21.10;99.90;;;;;;6230752;23;20028;-80
2022/05/19 19:13:38;;;;;;;1.33;1.00;;;21.10;99.90;;;;;;6225322;23;20008;-79
2022/05/19 19:16:08;;;;;;;5.82;1.45;;;21.10;99.90;;;;;;6198632;23;20024;-80
2022/05/19 19:18:35;;;;;;;2.28;1.30;;;21.00;99.90;;;;;;6225488;23;20031;-80
2022/05/19 19:21:07;;;;;;;1.25;0.88;;;21.00;99.90;;;;;;6199009;23;20031;-80
2022/05/19 19:23:34;;;;;;;0.60;0.30;;;21.00;99.90;;;;;;6225223;23;20179;-80
2022/05/19 19:26:00;;;;;;;0.30;0.30;;;20.90;99.90;;;;;;6225275;23;20004;-78
2022/05/19 19:28:27;;;;;;;0.93;0.43;;;20.70;99.90;;;;;;6174188;23;20290;-79
2022/05/19 19:30:56;;;;;;;0.28;0.20;;;20.50;99.90;;;;;;6223768;23;20016;-79
2022/05/19 19:33:23;;;;;;;0.32;0.30;;;20.40;99.90;;;;;;6174419;23;20004;-78
2022/05/19 19:35:48;;;;;;;0.77;0.77;;;20.40;99.90;;;;;;6224855;23;20081;-79
2022/05/19 19:38:14;;;;;;;1.55;1.02;;;20.40;99.90;;;;;;6225478;23;20270;-78
2022/05/19 19:40:40;;;;;;;0.75;0.75;;;20.40;99.90;;;;;;6197861;23;20064;-79
2022/05/19 19:43:06;;;;;;;1.05;0.60;;;20.40;99.90;;;;;;6224862;23;20001;-79
2022/05/19 19:45:33;;;;;;;1.63;1.33;;;20.40;99.90;;;;;;6173093;23;20013;-78
2022/05/19 19:48:00;;;;;;;0.60;0.57;;;20.40;99.90;;;;;;6174437;23;20028;-79
2022/05/19 19:53:16;;;;;;;16.58;12.05;;;20.60;99.90;;;;;;6199249;23;20195;-80
2022/05/19 19:55:42;;;;;;;19.40;12.50;;;20.80;99.90;;;;;;6224466;23;20028;-80
2022/05/19 19:58:21;;;;;;;23.73;14.05;;;20.90;99.90;;;;;;6225605;23;20286;-82
2022/05/19 20:00:49;;;;;;;22.20;15.23;;;20.90;99.90;;;;;;6132743;23;20311;-78
2022/05/19 20:03:15;;;;;;;24.65;15.65;;;20.90;99.90;;;;;;6109143;23;20017;-78